Time;durP1;ratioP1;P1;durP2;ratioP2;P2;SDS_P1;SDS_P2;PMS_P1;PMS_P2;Temp;Humidity;BMP_temperature;BMP_pressure;BME280_temperature;BME280_humidity;BME280_pressure;Samples;Min_cycle;Max_cycle;Signal;HPM_P1;HPM_P2
2023/11/22 00:00:15;;;;;;;9.20;6.40;;;;;;;16.42;57.77;101358.30;106932;1262;22526;-73
2023/11/22 00:02:43;;;;;;;11.10;6.50;;;;;;;16.47;57.70;101360.57;106701;1258;22540;-71
2023/11/22 00:05:12;;;;;;;10.00;6.20;;;;;;;16.51;57.63;101359.42;106842;1260;22520;-71
2023/11/22 00:07:40;;;;;;;10.30;6.40;;;;;;;16.55;57.45;101358.40;106774;1255;22539;-72
2023/11/22 00:10:08;;;;;;;8.70;6.10;;;;;;;16.57;57.38;101361.13;106948;1255;25295;-73
2023/11/22 00:12:38;;;;;;;8.20;5.90;;;;;;;16.60;57.33;101358.88;106965;1256;22526;-72
2023/11/22 00:15:07;;;;;;;11.20;6.50;;;;;;;16.64;57.31;101357.89;106911;1255;25369;-72
2023/11/22 00:17:35;;;;;;;14.80;7.50;;;;;;;16.67;57.18;101357.41;106823;1256;25380;-72
2023/11/22 00:20:05;;;;;;;8.30;6.10;;;;;;;16.76;56.92;101351.13;106273;1261;22530;-71
2023/11/22 00:22:34;;;;;;;10.90;6.80;;;;;;;16.79;56.83;101349.60;106435;1260;25363;-73
2023/11/22 00:25:01;;;;;;;10.20;6.50;;;;;;;16.82;56.74;101349.47;106239;1260;22530;-72
2023/11/22 00:27:31;;;;;;;11.90;6.30;;;;;;;16.83;56.73;101350.14;106263;1262;22553;-71
2023/11/22 00:29:59;;;;;;;13.20;5.80;;;;;;;16.85;56.62;101351.98;106273;1256;24281;-73
2023/11/22 00:32:26;;;;;;;10.00;5.80;;;;;;;16.85;56.63;101358.29;106244;1271;22584;-72
2023/11/22 00:34:54;;;;;;;13.70;5.90;;;;;;;16.85;56.60;101361.95;106306;1261;22216;-72
2023/11/22 00:37:22;;;;;;;11.00;6.10;;;;;;;16.87;56.67;101356.30;106347;1261;22532;-72
2023/11/22 00:39:51;;;;;;;11.50;6.40;;;;;;;16.89;56.69;101358.66;106449;1262;22531;-72
2023/11/22 00:42:20;;;;;;;11.80;6.60;;;;;;;16.90;56.71;101361.23;106683;1261;24195;-72
2023/11/22 00:44:48;;;;;;;10.00;6.20;;;;;;;16.91;56.63;101365.05;106653;1258;23008;-73
2023/11/22 00:47:16;;;;;;;11.00;5.90;;;;;;;16.93;56.54;101363.95;106715;1259;22564;-71
2023/11/22 00:49:44;;;;;;;8.00;5.50;;;;;;;16.95;56.44;101361.05;106463;1261;22560;-72
2023/11/22 00:52:13;;;;;;;12.40;6.00;;;;;;;16.96;56.34;101362.06;106863;1261;22536;-71
2023/11/22 00:54:41;;;;;;;12.60;5.70;;;;;;;16.98;56.26;101360.60;106941;1257;22748;-72
2023/11/22 00:57:08;;;;;;;13.50;6.40;;;;;;;16.98;56.21;101361.65;106890;1257;22531;-72
2023/11/22 00:59:36;;;;;;;10.60;6.00;;;;;;;16.98;56.04;101361.29;106928;1257;22525;-72
2023/11/22 01:02:05;;;;;;;8.30;5.50;;;;;;;16.99;56.10;101359.00;107058;1256;22530;-71
2023/11/22 01:04:35;;;;;;;8.70;5.30;;;;;;;16.97;56.13;101359.59;106972;1256;22547;-71
2023/11/22 01:07:06;;;;;;;10.80;6.00;;;;;;;16.97;56.02;101349.44;106931;1268;22519;-71
2023/11/22 01:09:34;;;;;;;9.80;5.80;;;;;;;16.97;55.93;101344.52;104751;1256;1003791;-73
2023/11/22 01:12:02;;;;;;;9.90;5.50;;;;;;;16.97;56.03;101336.98;106790;1264;22529;-70
2023/11/22 01:14:30;;;;;;;9.30;5.90;;;;;;;16.98;56.05;101337.65;106813;1264;22526;-72
2023/11/22 01:16:58;;;;;;;11.70;6.30;;;;;;;16.97;56.15;101333.11;106910;1268;22539;-72
2023/11/22 01:19:26;;;;;;;8.80;5.90;;;;;;;16.98;56.24;101330.64;106714;1261;22560;-71
2023/11/22 01:21:54;;;;;;;11.60;6.50;;;;;;;17.03;56.17;101327.98;107088;1253;24274;-72
2023/11/22 01:24:23;;;;;;;10.70;6.20;;;;;;;17.06;56.18;101322.07;106981;1258;22546;-71
2023/11/22 01:26:50;;;;;;;10.60;6.10;;;;;;;17.06;56.16;101318.40;106971;1257;24393;-70
2023/11/22 01:29:18;;;;;;;9.10;5.80;;;;;;;17.05;56.17;101318.42;106964;1257;22558;-72
2023/11/22 01:31:47;;;;;;;10.70;5.70;;;;;;;17.06;56.23;101316.65;106950;1258;22536;-72
2023/11/22 01:34:15;;;;;;;9.40;5.80;;;;;;;17.06;56.14;101318.23;107115;1268;23903;-71
2023/11/22 01:36:46;;;;;;;8.00;5.50;;;;;;;17.06;56.12;101305.75;106974;1258;22543;-72
2023/11/22 01:39:13;;;;;;;10.80;6.20;;;;;;;17.05;56.19;101300.71;106751;1260;22529;-71
2023/11/22 01:41:44;;;;;;;13.30;5.50;;;;;;;17.06;56.14;101298.23;107061;1256;22526;-71
2023/11/22 01:44:12;;;;;;;10.20;6.20;;;;;;;17.07;56.17;101293.97;106921;1255;24380;-72
2023/11/22 01:46:40;;;;;;;11.20;6.10;;;;;;;17.17;55.96;101297.77;106903;1257;23300;-71
2023/11/22 01:49:09;;;;;;;10.70;6.20;;;;;;;17.22;55.91;101293.55;106742;1258;25376;-72
2023/11/22 01:51:40;;;;;;;11.20;6.30;;;;;;;17.23;55.90;101294.71;106839;1269;22527;-71
2023/11/22 01:54:08;;;;;;;9.50;6.40;;;;;;;17.24;55.86;101294.86;106998;1258;22495;-69
2023/11/22 01:56:39;;;;;;;11.40;6.40;;;;;;;17.24;55.87;101296.60;106983;1268;22526;-72
2023/11/22 01:59:07;;;;;;;11.50;5.60;;;;;;;17.22;55.97;101298.98;106689;1259;25250;-71
2023/11/22 02:01:35;;;;;;;10.60;5.90;;;;;;;17.21;56.01;101296.06;106318;1274;25227;-71
2023/11/22 02:04:03;;;;;;;9.90;5.50;;;;;;;17.18;56.11;101289.33;106357;1274;22638;-71
2023/11/22 02:06:31;;;;;;;7.60;5.20;;;;;;;17.18;56.06;101293.02;106328;1274;22531;-72
2023/11/22 02:08:59;;;;;;;12.40;5.80;;;;;;;17.19;55.96;101290.66;106385;1259;22579;-71
2023/11/22 02:11:27;;;;;;;7.20;5.50;;;;;;;17.24;55.80;101293.11;106665;1257;25397;-71
2023/11/22 02:13:55;;;;;;;6.40;5.00;;;;;;;17.25;55.87;101293.63;106632;1256;22530;-70
2023/11/22 02:16:23;;;;;;;8.50;5.40;;;;;;;17.25;55.83;101290.48;106660;1253;23890;-71
2023/11/22 02:18:51;;;;;;;13.50;4.80;;;;;;;17.26;55.81;101289.55;106655;1256;22526;-71
2023/11/22 02:21:21;;;;;;;8.40;4.80;;;;;;;17.25;55.81;101290.11;106702;1257;25257;-71
2023/11/22 02:23:49;;;;;;;14.20;5.30;;;;;;;17.26;55.87;101291.63;106563;1254;22537;-72
2023/11/22 02:26:18;;;;;;;13.30;5.10;;;;;;;17.28;55.77;101296.29;106658;1268;22531;-71
2023/11/22 02:28:46;;;;;;;8.20;4.70;;;;;;;17.28;55.91;101298.91;106697;1257;24225;-71
2023/11/22 02:31:14;;;;;;;10.10;5.40;;;;;;;17.29;55.92;101301.86;106580;1259;22717;-72
2023/11/22 02:33:42;;;;;;;8.00;5.00;;;;;;;17.30;55.89;101297.08;107120;1257;22523;-72
2023/11/22 02:36:12;;;;;;;12.50;5.20;;;;;;;17.31;55.89;101299.64;106941;1256;22526;-72
2023/11/22 02:38:40;;;;;;;9.90;5.20;;;;;;;17.34;55.94;101294.96;106733;1261;22536;-70
2023/11/22 02:41:09;;;;;;;10.30;5.30;;;;;;;17.36;55.93;101294.52;107001;1257;22551;-70
2023/11/22 02:43:37;;;;;;;11.40;5.50;;;;;;;17.38;55.89;101292.86;107028;1256;25345;-71
2023/11/22 02:46:04;;;;;;;6.10;4.80;;;;;;;17.43;55.90;101290.91;106912;1258;22537;-71
2023/11/22 02:48:33;;;;;;;14.80;6.10;;;;;;;17.43;55.83;101284.10;106279;1255;1002860;-71
2023/11/22 02:51:01;;;;;;;9.70;5.20;;;;;;;17.46;55.75;101284.14;106985;1253;23913;-71
2023/11/22 02:53:30;;;;;;;8.10;4.60;;;;;;;17.51;55.55;101279.73;106823;1256;22648;-70
2023/11/22 02:56:01;;;;;;;7.50;5.20;;;;;;;17.51;55.50;101282.17;106773;1274;22526;-71
2023/11/22 02:58:29;;;;;;;10.20;5.80;;;;;;;17.52;55.56;101280.90;106788;1264;22582;-71
2023/11/22 03:00:57;;;;;;;8.10;4.70;;;;;;;17.52;55.50;101278.27;106820;1258;26513;-71
2023/11/22 03:03:25;;;;;;;11.90;5.80;;;;;;;17.54;55.54;101275.77;106933;1254;22526;-71
2023/11/22 03:05:53;;;;;;;11.20;5.70;;;;;;;17.53;55.61;101275.80;106985;1256;22552;-71
2023/11/22 03:08:21;;;;;;;7.90;5.70;;;;;;;17.53;55.66;101276.32;106990;1258;22569;-71
2023/11/22 03:10:50;;;;;;;8.70;5.30;;;;;;;17.53;55.65;101274.36;106958;1257;25351;-70
2023/11/22 03:13:18;;;;;;;9.60;4.90;;;;;;;17.48;55.85;101271.75;107094;1257;22414;-72
2023/11/22 03:15:46;;;;;;;16.20;5.50;;;;;;;17.51;55.81;101268.52;107043;1256;23861;-71
2023/11/22 03:18:16;;;;;;;9.70;5.80;;;;;;;17.51;55.93;101265.02;107105;1253;25382;-71
2023/11/22 03:20:45;;;;;;;10.00;4.70;;;;;;;17.50;55.93;101262.41;106670;1258;23906;-70
2023/11/22 03:23:12;;;;;;;12.80;5.40;;;;;;;17.48;56.09;101258.26;107040;1256;24287;-71
2023/11/22 03:25:40;;;;;;;8.80;5.20;;;;;;;17.48;56.17;101256.68;106708;1259;22530;-71
2023/11/22 03:28:08;;;;;;;7.80;5.10;;;;;;;17.48;56.23;101255.81;106953;1257;22541;-72
2023/11/22 03:30:37;;;;;;;10.00;5.50;;;;;;;17.47;56.28;101252.00;106927;1257;22561;-70
2023/11/22 03:33:05;;;;;;;8.50;4.40;;;;;;;17.47;56.33;101253.05;106829;1261;22534;-70
2023/11/22 03:35:33;;;;;;;9.90;4.80;;;;;;;17.48;56.33;101251.93;106885;1257;22672;-72
2023/11/22 03:38:01;;;;;;;10.60;5.10;;;;;;;17.52;56.27;101256.54;106762;1258;22544;-69
2023/11/22 03:40:29;;;;;;;8.80;5.10;;;;;;;17.53;56.29;101257.37;106818;1257;22536;-71
2023/11/22 03:42:57;;;;;;;6.40;5.00;;;;;;;17.54;56.40;101259.27;106778;1257;22545;-72
2023/11/22 03:45:24;;;;;;;11.60;5.70;;;;;;;17.58;56.19;101263.27;106807;1261;25246;-71
2023/11/22 03:47:53;;;;;;;10.50;5.70;;;;;;;17.60;56.13;101262.33;106959;1267;22525;-72
2023/11/22 03:50:21;;;;;;;7.80;4.70;;;;;;;17.61;56.10;101261.25;107028;1258;24279;-72
2023/11/22 03:52:49;;;;;;;8.30;5.00;;;;;;;17.61;56.09;101263.17;106673;1261;25245;-72
2023/11/22 03:55:17;;;;;;;12.00;5.90;;;;;;;17.59;56.21;101262.35;106824;1266;24249;-71
2023/11/22 03:57:44;;;;;;;11.10;5.90;;;;;;;17.59;56.37;101259.75;106781;1261;22782;-71
2023/11/22 04:00:13;;;;;;;12.00;5.60;;;;;;;17.59;56.29;101259.75;106904;1268;23009;-71
2023/11/22 04:02:41;;;;;;;10.70;5.70;;;;;;;17.58;56.37;101264.84;107010;1268;23858;-71
2023/11/22 04:05:11;;;;;;;8.80;5.00;;;;;;;17.57;56.39;101268.08;106980;1258;22523;-71
2023/11/22 04:07:39;;;;;;;6.70;5.00;;;;;;;17.56;56.33;101262.84;106568;1261;24179;-72
2023/11/22 04:10:07;;;;;;;8.40;5.00;;;;;;;17.58;56.30;101266.47;106942;1262;22522;-72
2023/11/22 04:12:35;;;;;;;8.70;4.60;;;;;;;17.59;56.11;101263.60;107097;1255;25356;-71
2023/11/22 04:15:08;;;;;;;8.50;5.20;;;;;;;17.52;56.39;101261.95;106841;1272;22530;-72
2023/11/22 04:17:37;;;;;;;12.30;5.70;;;;;;;17.50;56.49;101264.67;106964;1257;22533;-72
2023/11/22 04:20:10;;;;;;;6.90;4.60;;;;;;;17.49;56.47;101267.55;106984;1259;22513;-71
2023/11/22 04:22:40;;;;;;;5.50;4.50;;;;;;;17.49;56.56;101271.21;106979;1256;23386;-70
2023/11/22 04:25:13;;;;;;;7.50;4.80;;;;;;;17.49;56.53;101277.17;103335;1256;1003894;-71
2023/11/22 04:27:41;;;;;;;9.50;5.10;;;;;;;17.48;56.59;101273.36;106969;1253;22530;-71
2023/11/22 04:30:14;;;;;;;8.60;5.50;;;;;;;17.47;56.69;101274.09;107006;1261;22520;-71
2023/11/22 04:32:42;;;;;;;13.90;5.10;;;;;;;17.45;56.79;101275.56;106912;1267;25240;-70
2023/11/22 04:35:10;;;;;;;8.40;4.70;;;;;;;17.46;56.76;101276.94;106994;1256;22531;-70
2023/11/22 04:37:38;;;;;;;8.10;4.50;;;;;;;17.47;56.75;101279.16;106578;1264;23019;-71
2023/11/22 04:40:11;;;;;;;11.00;5.60;;;;;;;17.48;56.70;101280.52;106874;1274;22526;-70
2023/11/22 04:42:39;;;;;;;8.70;4.90;;;;;;;17.48;56.79;101283.50;106831;1262;22533;-70
2023/11/22 04:45:09;;;;;;;11.00;5.20;;;;;;;17.49;56.96;101283.16;106970;1255;22519;-71
2023/11/22 04:47:37;;;;;;;13.30;5.10;;;;;;;17.53;56.84;101285.97;106959;1269;25341;-71
2023/11/22 04:50:06;;;;;;;10.40;5.10;;;;;;;17.52;56.94;101284.60;107027;1255;22552;-71
2023/11/22 04:52:34;;;;;;;6.80;4.40;;;;;;;17.54;56.98;101283.48;106802;1253;24274;-70
2023/11/22 04:55:01;;;;;;;10.80;4.70;;;;;;;17.55;56.89;101287.82;107004;1269;22530;-72
2023/11/22 04:57:29;;;;;;;6.00;4.10;;;;;;;17.55;56.84;101286.94;106946;1258;22549;-71
2023/11/22 04:59:57;;;;;;;8.30;4.80;;;;;;;17.55;56.86;101294.14;106973;1253;22525;-70
2023/11/22 05:02:26;;;;;;;9.30;4.80;;;;;;;17.56;56.85;101297.57;106932;1257;22527;-72
2023/11/22 05:04:54;;;;;;;6.20;5.00;;;;;;;17.58;56.75;101299.95;106975;1269;22530;-72
2023/11/22 05:07:22;;;;;;;8.40;4.90;;;;;;;17.60;56.73;101300.39;107104;1257;25533;-70
2023/11/22 05:09:50;;;;;;;15.50;6.00;;;;;;;17.63;56.78;101301.86;107005;1254;22542;-72
2023/11/22 05:12:18;;;;;;;7.10;4.60;;;;;;;17.71;56.56;101299.73;106903;1256;22516;-71
2023/11/22 05:14:45;;;;;;;7.70;4.70;;;;;;;17.66;56.70;101300.30;106656;1258;415941;-71
2023/11/22 05:17:13;;;;;;;7.50;4.80;;;;;;;17.64;56.75;101298.45;106964;1259;25343;-71
2023/11/22 05:19:41;;;;;;;13.40;6.00;;;;;;;17.64;56.80;101293.55;106811;1259;22532;-71
2023/11/22 05:22:09;;;;;;;7.00;4.20;;;;;;;17.62;56.73;101299.95;106719;1255;22527;-70
2023/11/22 05:24:40;;;;;;;10.10;5.70;;;;;;;17.61;56.71;101302.64;106772;1256;25300;-72
2023/11/22 05:27:09;;;;;;;7.20;5.30;;;;;;;17.61;56.83;101308.61;106701;1263;22528;-70
2023/11/22 05:29:37;;;;;;;7.70;4.90;;;;;;;17.61;56.83;101310.88;106535;1256;22628;-70
2023/11/22 05:32:17;;;;;;;11.00;5.40;;;;;;;17.62;56.84;101311.20;106423;1260;25277;-71
2023/11/22 05:34:45;;;;;;;9.60;5.40;;;;;;;17.62;56.78;101314.00;106377;1260;22536;-72
2023/11/22 05:37:13;;;;;;;7.90;5.30;;;;;;;17.61;56.67;101319.14;106807;1256;22552;-72
2023/11/22 05:39:41;;;;;;;7.40;5.20;;;;;;;17.60;56.75;101320.23;106787;1263;22549;-72
2023/11/22 05:42:08;;;;;;;8.20;5.20;;;;;;;17.61;56.67;101323.36;107019;1256;22546;-71
2023/11/22 05:44:36;;;;;;;11.00;5.40;;;;;;;17.62;56.63;101331.55;106886;1257;22527;-72
2023/11/22 05:47:04;;;;;;;7.10;5.20;;;;;;;17.60;56.48;101338.13;106930;1256;22534;-70
2023/11/22 05:49:33;;;;;;;6.60;5.10;;;;;;;17.59;56.53;101343.09;106997;1269;22533;-72
2023/11/22 05:52:01;;;;;;;5.90;5.20;;;;;;;17.59;56.52;101343.80;107072;1256;24336;-71
2023/11/22 05:54:29;;;;;;;6.80;5.20;;;;;;;17.58;56.44;101344.52;107017;1256;22524;-72
2023/11/22 05:56:57;;;;;;;6.60;4.70;;;;;;;17.56;56.43;101343.90;106915;1259;22640;-71
2023/11/22 05:59:25;;;;;;;8.40;5.40;;;;;;;17.54;56.47;101345.03;106691;1262;22532;-72
2023/11/22 06:01:53;;;;;;;10.60;5.20;;;;;;;17.52;56.49;101349.16;106796;1258;22529;-72
2023/11/22 06:04:21;;;;;;;14.50;6.60;;;;;;;17.53;56.62;101353.33;107131;1256;22541;-71
2023/11/22 06:06:49;;;;;;;8.10;6.50;;;;;;;17.53;56.71;101357.17;106796;1261;22513;-71
2023/11/22 06:09:17;;;;;;;12.90;8.20;;;;;;;17.53;56.78;101353.67;106812;1262;22523;-71
2023/11/22 06:11:44;;;;;;;16.20;8.10;;;;;;;17.52;56.79;101350.21;106922;1271;22529;-70
2023/11/22 06:14:12;;;;;;;14.20;8.80;;;;;;;17.53;56.84;101353.33;106985;1260;22524;-71
2023/11/22 06:16:40;;;;;;;11.70;8.10;;;;;;;17.49;56.81;101351.20;106974;1259;24276;-70
2023/11/22 06:19:08;;;;;;;11.90;8.50;;;;;;;17.43;56.84;101352.14;106955;1267;22526;-70
2023/11/22 06:21:38;;;;;;;10.00;8.40;;;;;;;17.37;56.91;101357.97;106813;1260;22566;-71
2023/11/22 06:24:08;;;;;;;9.30;7.30;;;;;;;17.30;56.96;101358.80;106977;1256;22529;-70
2023/11/22 06:26:37;;;;;;;16.00;9.10;;;;;;;17.20;57.15;101364.98;106983;1269;22678;-71
2023/11/22 06:29:05;;;;;;;13.10;9.60;;;;;;;17.16;57.27;101372.00;106762;1260;22526;-71
2023/11/22 06:31:33;;;;;;;11.20;9.20;;;;;;;17.08;57.50;101376.33;106727;1256;24212;-71
2023/11/22 06:34:01;;;;;;;14.00;9.40;;;;;;;17.04;57.73;101377.71;106732;1269;22574;-71
2023/11/22 06:36:29;;;;;;;13.10;9.40;;;;;;;17.01;57.86;101378.52;106850;1259;25454;-71
2023/11/22 06:38:57;;;;;;;13.40;9.90;;;;;;;17.00;57.96;101381.21;107095;1254;22544;-71
2023/11/22 06:41:25;;;;;;;15.40;10.50;;;;;;;17.01;57.85;101383.44;106545;1261;22568;-71
2023/11/22 06:43:53;;;;;;;17.10;11.50;;;;;;;16.98;57.82;101383.92;107021;1272;24224;-71
2023/11/22 06:46:22;;;;;;;15.10;10.80;;;;;;;16.92;57.75;101394.84;106975;1267;22523;-70
2023/11/22 06:48:50;;;;;;;19.50;11.50;;;;;;;16.88;57.68;101393.05;107033;1261;22529;-71
2023/11/22 06:51:18;;;;;;;14.40;10.80;;;;;;;16.80;57.58;101398.45;107097;1269;22531;-71
2023/11/22 06:53:46;;;;;;;19.50;11.40;;;;;;;16.70;57.51;101399.66;107063;1267;22531;-70
2023/11/22 06:56:14;;;;;;;17.40;12.90;;;;;;;16.52;57.84;101406.64;107019;1256;25376;-70
2023/11/22 06:58:42;;;;;;;18.40;12.30;;;;;;;16.33;58.12;101410.45;106584;1260;26589;-70
2023/11/22 07:01:10;;;;;;;16.80;11.40;;;;;;;16.23;58.10;101415.70;106804;1258;22531;-70
2023/11/22 07:03:40;;;;;;;20.60;13.20;;;;;;;16.15;58.35;101420.37;106753;1256;22540;-70
2023/11/22 07:06:09;;;;;;;29.30;17.50;;;;;;;16.08;58.29;101427.39;106958;1256;22527;-71
2023/11/22 07:08:37;;;;;;;22.00;13.50;;;;;;;16.01;58.32;101432.02;106888;1253;22633;-71
2023/11/22 07:11:07;;;;;;;18.20;12.60;;;;;;;15.94;58.34;101437.35;107019;1259;24168;-70
2023/11/22 07:13:38;;;;;;;19.70;13.20;;;;;;;15.88;58.28;101439.11;107015;1256;22546;-70
2023/11/22 07:16:07;;;;;;;19.20;12.50;;;;;;;15.79;58.40;101443.96;107000;1258;22543;-70
2023/11/22 07:18:35;;;;;;;18.40;12.40;;;;;;;15.74;58.57;101441.33;106705;1263;22529;-70
2023/11/22 07:21:02;;;;;;;18.00;12.70;;;;;;;15.71;58.55;101451.77;107174;1256;22534;-71
2023/11/22 07:23:30;;;;;;;16.70;12.50;;;;;;;15.66;58.59;101452.96;106985;1262;24283;-69
2023/11/22 07:25:58;;;;;;;16.80;12.10;;;;;;;15.62;58.67;101453.78;106987;1269;22533;-70
2023/11/22 07:28:26;;;;;;;28.40;16.20;;;;;;;15.59;58.64;101452.11;106757;1257;25236;-70
2023/11/22 07:30:53;;;;;;;118.10;42.20;;;;;;;15.55;58.76;101455.73;106892;1258;22538;-71
2023/11/22 07:33:21;;;;;;;193.50;64.00;;;;;;;15.54;58.98;101457.01;106990;1255;22542;-70
2023/11/22 07:35:49;;;;;;;91.30;34.80;;;;;;;15.55;58.94;101456.63;106947;1263;23240;-70
2023/11/22 07:38:17;;;;;;;54.70;25.10;;;;;;;15.54;58.97;101456.47;107031;1256;25449;-70
2023/11/22 07:40:45;;;;;;;56.20;24.70;;;;;;;15.54;58.83;101457.19;107005;1258;22530;-70
2023/11/22 07:43:14;;;;;;;37.40;20.00;;;;;;;15.52;58.96;101458.29;107012;1259;22533;-71
2023/11/22 07:45:43;;;;;;;30.80;16.20;;;;;;;15.52;58.90;101455.84;106755;1256;22532;-70
2023/11/22 07:48:11;;;;;;;17.30;11.90;;;;;;;15.51;58.94;101459.73;107029;1256;22526;-70
2023/11/22 07:50:39;;;;;;;17.20;13.30;;;;;;;15.49;58.74;101458.75;107140;1256;25351;-70
2023/11/22 07:53:08;;;;;;;21.50;13.90;;;;;;;15.46;58.79;101461.10;107034;1258;22522;-70
2023/11/22 07:55:41;;;;;;;47.60;25.40;;;;;;;15.43;58.75;101462.77;107008;1256;22536;-70
2023/11/22 07:58:10;;;;;;;28.30;19.70;;;;;;;15.41;58.86;101464.36;107037;1259;24521;-70
2023/11/22 08:00:38;;;;;;;31.30;19.10;;;;;;;15.40;58.91;101470.16;106983;1256;22519;-70
2023/11/22 08:03:06;;;;;;;23.00;14.80;;;;;;;15.40;58.93;101474.71;106957;1268;22531;-70
2023/11/22 08:05:36;;;;;;;23.20;14.70;;;;;;;15.40;58.85;101474.36;107045;1253;22522;-70
2023/11/22 08:08:07;;;;;;;28.80;16.90;;;;;;;15.38;58.85;101473.55;106384;1262;22549;-71
2023/11/22 08:10:36;;;;;;;28.20;16.90;;;;;;;15.36;58.82;101471.34;107078;1257;22528;-70
2023/11/22 08:13:04;;;;;;;36.90;18.30;;;;;;;15.35;58.76;101476.09;106934;1260;25359;-70
2023/11/22 08:15:31;;;;;;;91.50;41.00;;;;;;;15.34;58.89;101478.41;106966;1264;22526;-71
2023/11/22 08:18:02;;;;;;;44.90;25.00;;;;;;;15.34;59.00;101475.41;107139;1256;22529;-70
2023/11/22 08:20:31;;;;;;;35.90;16.80;;;;;;;15.35;58.94;101476.43;106893;1260;21777;-70
2023/11/22 08:23:00;;;;;;;24.10;14.30;;;;;;;15.34;58.92;101475.94;107004;1259;22532;-70
2023/11/22 08:25:29;;;;;;;18.10;12.40;;;;;;;15.32;58.94;101476.16;106848;1274;24209;-71
2023/11/22 08:27:57;;;;;;;26.50;15.70;;;;;;;15.30;58.94;101478.67;107019;1263;25268;-70
2023/11/22 08:30:25;;;;;;;30.70;17.10;;;;;;;15.29;59.06;101477.84;106894;1259;22536;-70
2023/11/22 08:32:54;;;;;;;34.20;20.30;;;;;;;15.28;59.09;101476.48;106852;1257;22589;-70
2023/11/22 08:35:23;;;;;;;46.30;24.90;;;;;;;15.27;59.23;101474.27;106639;1266;24278;-70
2023/11/22 08:37:52;;;;;;;41.20;31.40;;;;;;;15.27;59.14;101470.57;106966;1256;22526;-71
2023/11/22 08:40:20;;;;;;;23.80;21.30;;;;;;;15.27;59.14;101470.40;106767;1260;22525;-69
2023/11/22 08:42:49;;;;;;;21.50;15.70;;;;;;;15.27;59.05;101471.82;107060;1256;22540;-71
2023/11/22 08:45:17;;;;;;;19.30;12.40;;;;;;;15.34;58.91;101472.98;106946;1272;22543;-71
2023/11/22 08:47:45;;;;;;;16.80;11.40;;;;;;;15.47;58.61;101473.51;106830;1260;22536;-71
2023/11/22 08:50:15;;;;;;;16.50;10.20;;;;;;;15.47;58.55;101470.35;106915;1257;22527;-71
2023/11/22 08:52:44;;;;;;;19.30;11.80;;;;;;;15.46;58.51;101470.91;107026;1272;22548;-70
2023/11/22 08:55:14;;;;;;;20.10;11.60;;;;;;;15.42;58.39;101473.09;106955;1268;22538;-71
2023/11/22 08:57:42;;;;;;;19.10;11.30;;;;;;;15.38;58.41;101472.86;106728;1271;22559;-71
2023/11/22 09:00:14;;;;;;;16.70;10.50;;;;;;;15.37;58.52;101470.10;106879;1269;22536;-71
2023/11/22 09:02:42;;;;;;;;;;;;;;;15.36;58.54;101465.92;106745;1256;22594;-71
2023/11/22 09:05:12;;;;;;;13.80;10.10;;;;;;;15.35;58.46;101468.05;106696;1258;22537;-71
2023/11/22 09:07:40;;;;;;;12.80;9.30;;;;;;;15.32;58.65;101469.19;106787;1259;22534;-71
2023/11/22 09:10:09;;;;;;;14.40;9.30;;;;;;;15.34;58.81;101468.98;106663;1259;23879;-71
2023/11/22 09:12:41;;;;;;;14.40;9.20;;;;;;;15.37;58.74;101466.06;106746;1269;24006;-71
2023/11/22 09:15:17;;;;;;;15.10;9.50;;;;;;;15.35;58.85;101466.15;106936;1259;22636;-71
2023/11/22 09:17:46;;;;;;;10.50;8.70;;;;;;;15.22;59.10;101465.48;106837;1264;25388;-71
2023/11/22 09:20:15;;;;;;;14.60;9.20;;;;;;;15.17;59.13;101462.47;106905;1262;22531;-71
2023/11/22 09:22:50;;;;;;;12.00;8.10;;;;;;;15.15;59.11;101463.93;106816;1260;22516;-71
2023/11/22 09:25:20;;;;;;;10.80;7.90;;;;;;;15.14;59.12;101463.60;106882;1259;24230;-71
2023/11/22 09:27:51;;;;;;;11.90;8.70;;;;;;;15.12;59.19;101460.70;107014;1270;22540;-71
2023/11/22 09:30:32;;;;;;;10.60;8.20;;;;;;;15.12;59.20;101462.99;107033;1256;22530;-70
2023/11/22 09:33:04;;;;;;;10.70;8.40;;;;;;;15.08;59.17;101462.91;106916;1269;22650;-71
2023/11/22 09:35:33;;;;;;;10.40;8.40;;;;;;;15.05;59.14;101467.90;106912;1259;25300;-71
2023/11/22 09:38:01;;;;;;;14.10;9.90;;;;;;;15.04;59.16;101467.23;106985;1266;22537;-71
2023/11/22 09:40:32;;;;;;;13.90;9.70;;;;;;;15.00;59.08;101462.80;107030;1268;25303;-71
2023/11/22 09:43:01;;;;;;;15.10;9.30;;;;;;;14.97;59.20;101463.23;106781;1269;25375;-71
2023/11/22 09:45:30;;;;;;;13.80;9.60;;;;;;;14.97;59.22;101466.92;104783;1258;1005996;-70
2023/11/22 09:47:58;;;;;;;11.30;8.90;;;;;;;14.92;59.30;101467.06;106914;1256;25464;-71
2023/11/22 09:50:58;;;;;;;16.40;9.50;;;;;;;14.87;59.32;101463.70;106876;1272;22533;-70
2023/11/22 09:53:56;;;;;;;10.50;8.70;;;;;;;14.83;59.29;101466.27;106429;1275;25355;-70
2023/11/22 09:56:24;;;;;;;11.40;8.90;;;;;;;14.81;59.38;101467.36;106018;1284;22540;-70
2023/11/22 09:58:56;;;;;;;12.40;8.80;;;;;;;14.79;59.32;101471.61;105963;1271;22566;-71
2023/11/22 10:01:24;;;;;;;15.70;8.40;;;;;;;14.78;59.25;101474.08;106003;1266;24162;-71
2023/11/22 10:03:52;;;;;;;11.70;8.50;;;;;;;14.77;59.26;101481.63;105954;1287;24318;-70
2023/11/22 10:06:20;;;;;;;11.70;8.40;;;;;;;14.76;59.18;101484.98;105903;1270;22546;-71
2023/11/22 10:08:48;;;;;;;14.90;9.00;;;;;;;14.76;59.03;101490.92;105697;1288;22559;-71
2023/11/22 10:11:21;;;;;;;11.40;8.30;;;;;;;14.76;58.92;101493.70;105863;1274;22546;-70
2023/11/22 10:13:50;;;;;;;11.30;7.70;;;;;;;14.72;58.83;101502.20;105946;1272;25300;-70
2023/11/22 10:16:20;;;;;;;11.70;8.30;;;;;;;14.67;58.84;101501.63;106054;1280;23287;-70
2023/11/22 10:18:48;;;;;;;13.00;8.60;;;;;;;14.62;58.91;101512.23;105814;1274;22557;-71
2023/11/22 10:21:21;;;;;;;12.90;8.50;;;;;;;14.65;58.72;101516.34;105966;1281;22531;-72
2023/11/22 10:23:51;;;;;;;10.60;8.20;;;;;;;14.69;58.50;101519.73;105987;1281;22545;-71
2023/11/22 10:26:19;;;;;;;11.00;8.00;;;;;;;14.67;58.32;101527.46;106152;1279;22543;-71
2023/11/22 10:28:47;;;;;;;11.10;8.20;;;;;;;14.66;58.21;101530.98;105927;1272;24253;-71
2023/11/22 10:31:15;;;;;;;12.30;7.90;;;;;;;14.62;58.13;101533.17;105900;1281;24233;-71
2023/11/22 10:33:43;;;;;;;10.00;7.70;;;;;;;14.55;57.96;101534.95;106569;1273;22576;-71
2023/11/22 10:36:12;;;;;;;12.40;8.40;;;;;;;14.48;58.05;101540.19;106971;1266;22516;-71
2023/11/22 10:38:40;;;;;;;9.40;7.70;;;;;;;14.42;58.05;101539.46;106935;1269;22627;-71
2023/11/22 10:41:08;;;;;;;8.90;7.20;;;;;;;14.38;58.09;101540.45;106991;1268;25341;-70
2023/11/22 10:43:36;;;;;;;11.00;7.70;;;;;;;14.35;58.13;101541.04;106914;1271;23946;-71
2023/11/22 10:46:04;;;;;;;8.30;6.90;;;;;;;14.30;58.19;101540.48;106751;1272;22527;-71
2023/11/22 10:48:33;;;;;;;9.50;7.30;;;;;;;14.26;58.22;101544.20;106641;1267;22631;-71
2023/11/22 10:51:04;;;;;;;8.40;7.20;;;;;;;14.22;58.24;101541.87;106665;1257;22536;-71
2023/11/22 10:53:37;;;;;;;9.80;8.00;;;;;;;14.18;58.25;101546.13;106450;1269;24330;-70
2023/11/22 10:56:15;;;;;;;12.70;8.80;;;;;;;14.17;58.14;101547.92;106605;1255;25337;-70
2023/11/22 10:58:48;;;;;;;13.60;9.60;;;;;;;14.13;58.15;101550.44;106854;1273;25271;-71
2023/11/22 11:01:16;;;;;;;15.00;9.90;;;;;;;14.11;58.33;101552.41;106893;1269;22535;-71
2023/11/22 11:04:23;;;;;;;17.70;12.40;;;;;;;14.11;58.33;101553.83;106941;1263;22533;-72
2023/11/22 11:06:53;;;;;;;15.00;11.00;;;;;;;14.08;58.25;101558.24;106985;1270;25360;-71
2023/11/22 11:09:22;;;;;;;16.70;10.50;;;;;;;14.06;58.17;101557.95;106886;1257;25602;-71
2023/11/22 11:11:50;;;;;;;17.30;12.80;;;;;;;14.01;58.06;101560.34;107020;1261;22643;-71
2023/11/22 11:14:18;;;;;;;17.10;13.00;;;;;;;13.93;57.94;101557.54;106966;1256;22531;-71
2023/11/22 11:16:49;;;;;;;17.60;13.00;;;;;;;13.87;57.97;101552.27;106777;1259;23907;-70